| time (UTC) | temp F | wind direction | speed MPH | gust MPH | rain 1hr in | rain 24hr in | rain mn in | humidity % | barometer mb |
| 20260506192503 | 43 | 316 | 2.0 | 4.0 | 0.02 | 1.01 | 0.83 | 94 | 1006.5 |
| 20260506192003 | 43 | 268 | 1.0 | 3.0 | 0.02 | 1.02 | 0.83 | 94 | 1006.3 |
| 20260506191508 | 42 | 296 | 1.0 | 2.0 | 0.02 | 1.02 | 0.83 | 94 | 1006.4 |
| 20260506191004 | 42 | 261 | 0.0 | 2.0 | 0.01 | 1.01 | 0.82 | 94 | 1006.4 |
| 20260506190508 | 42 | 40 | 1.0 | 4.0 | 0.01 | 1.01 | 0.82 | 93 | 1006.3 |
| 20260506190007 | 42 | 293 | 2.0 | 4.0 | 0.01 | 1.02 | 0.82 | 94 | 1006.3 |
| 20260506185503 | 42 | 257 | 0.0 | 2.0 | 0.01 | 1.03 | 0.82 | 93 | 1006.2 |
| 20260506185002 | 42 | 152 | 0.0 | 3.0 | 0.01 | 1.04 | 0.82 | 94 | 1006.3 |
| 20260506184503 | 42 | 199 | 0.0 | 6.0 | 0.01 | 1.08 | 0.82 | 94 | 1006.3 |
| 20260506184005 | 42 | 286 | 1.0 | 6.0 | 0.00 | 1.13 | 0.81 | 94 | 1006.4 |
| 20260506183503 | 42 | 267 | 1.0 | 4.0 | 0.00 | 1.14 | 0.81 | 94 | 1006.4 |
| 20260506183012 | 42 | 242 | 2.0 | 4.0 | 0.00 | 1.14 | 0.81 | 94 | 1006.4 |
| 20260506182503 | 42 | 298 | 1.0 | 3.0 | 0.00 | 1.14 | 0.81 | 94 | 1006.2 |
| 20260506182005 | 42 | 101 | 1.0 | 3.0 | 0.00 | 1.14 | 0.81 | 94 | 1006.0 |
| 20260506181514 | 42 | 27 | 1.0 | 3.0 | 0.00 | 1.14 | 0.81 | 94 | 1005.9 |
| 20260506181008 | 42 | 161 | 0.0 | 3.0 | 0.00 | 1.14 | 0.81 | 94 | 1006.0 |
| 20260506180502 | 42 | 221 | 1.0 | 3.0 | 0.00 | 1.14 | 0.81 | 94 | 1006.1 |
| 20260506180023 | 41 | 94 | 0.0 | 6.0 | 0.00 | 1.14 | 0.81 | 94 | 1006.2 |
| 20260506175510 | 41 | 108 | 2.0 | 6.0 | 0.00 | 1.14 | 0.81 | 93 | 1006.3 |
| 20260506175002 | 41 | 126 | 1.0 | 2.0 | 0.01 | 1.14 | 0.81 | 94 | 1006.3 |
| 20260506174509 | 41 | 281 | 0.0 | 3.0 | 0.01 | 1.14 | 0.81 | 94 | 1006.3 |
| 20260506174002 | 41 | 129 | 1.0 | 3.0 | 0.01 | 1.14 | 0.81 | 93 | 1006.3 |
| 20260506173504 | 41 | 90 | 1.0 | 4.0 | 0.02 | 1.14 | 0.81 | 93 | 1006.2 |
| 20260506173008 | 41 | 281 | 1.0 | 4.0 | 0.02 | 1.14 | 0.81 | 93 | 1006.3 |
| 20260506172505 | 41 | 215 | 0.0 | 2.0 | 0.03 | 1.14 | 0.81 | 94 | 1006.3 |
| 20260506172010 | 41 | 142 | 1.0 | 2.0 | 0.04 | 1.14 | 0.81 | 94 | 1006.3 |
| 20260506171512 | 41 | 242 | 1.0 | 2.0 | 0.04 | 1.14 | 0.81 | 94 | 1006.4 |
| 20260506171004 | 41 | 264 | 0.0 | 2.0 | 0.05 | 1.14 | 0.81 | 94 | 1006.3 |
| 20260506170505 | 41 | 169 | 0.0 | 2.0 | 0.06 | 1.14 | 0.81 | 94 | 1006.4 |
| 20260506170019 | 41 | 156 | 0.0 | 2.0 | 0.07 | 1.14 | 0.81 | 94 | 1006.5 |
| 20260506165504 | 41 | 230 | 0.0 | 2.0 | 0.08 | 1.14 | 0.81 | 94 | 1006.5 |
| 20260506165004 | 41 | 263 | 1.0 | 2.0 | 0.07 | 1.13 | 0.80 | 94 | 1006.6 |
| 20260506164521 | 41 | 124 | 0.0 | 2.0 | 0.08 | 1.13 | 0.80 | 94 | 1006.5 |
| 20260506164009 | 40 | 266 | 1.0 | 2.0 | 0.09 | 1.13 | 0.80 | 94 | 1006.6 |
| 20260506163507 | 40 | 223 | 0.0 | 2.0 | 0.08 | 1.12 | 0.79 | 95 | 1006.7 |
| 20260506163018 | 40 | 173 | 0.0 | 3.0 | 0.09 | 1.12 | 0.79 | 94 | 1006.7 |
| 20260506162504 | 40 | 130 | 1.0 | 3.0 | 0.09 | 1.11 | 0.78 | 94 | 1006.8 |
| 20260506162006 | 40 | 262 | 0.0 | 2.0 | 0.09 | 1.10 | 0.77 | 94 | 1006.8 |
| 20260506161509 | 40 | 313 | 0.0 | 4.0 | 0.10 | 1.10 | 0.77 | 94 | 1006.8 |
| 20260506161009 | 40 | 107 | 0.0 | 6.0 | 0.09 | 1.09 | 0.76 | 94 | 1006.8 |
| 20260506160504 | 40 | 148 | 1.0 | 7.0 | 0.09 | 1.08 | 0.75 | 94 | 1006.7 |
| 20260506160010 | 39 | 182 | 1.0 | 7.0 | 0.09 | 1.07 | 0.74 | 94 | 1006.8 |
| 20260506155505 | 40 | 118 | 0.0 | 2.0 | 0.09 | 1.05 | 0.73 | 94 | 1006.9 |
| 20260506155009 | 40 | 122 | 0.0 | 4.0 | 0.10 | 1.05 | 0.73 | 94 | 1007.0 |
| 20260506154507 | 40 | 162 | 0.0 | 4.0 | 0.10 | 1.04 | 0.72 | 94 | 1007.0 |
| 20260506154004 | 40 | 225 | 0.0 | 4.0 | 0.10 | 1.04 | 0.71 | 94 | 1006.9 |
| 20260506153508 | 40 | 82 | 1.0 | 4.0 | 0.12 | 1.04 | 0.71 | 95 | 1006.8 |
| 20260506153024 | 39 | 306 | 2.0 | 4.0 | 0.12 | 1.03 | 0.70 | 94 | 1007.1 |
| 20260506152505 | 39 | 119 | 0.0 | 4.0 | 0.12 | 1.02 | 0.69 | 94 | 1006.7 |
| 20260506152008 | 39 | 117 | 1.0 | 4.0 | 0.12 | 1.01 | 0.68 | 94 | 1006.7 |
| 20260506151532 | 39 | 128 | 0.0 | 4.0 | 0.12 | 1.00 | 0.67 | 94 | 1006.7 |
| 20260506151007 | 39 | 125 | 0.0 | 2.0 | 0.13 | 1.00 | 0.67 | 94 | 1006.7 |
| 20260506150503 | 39 | 248 | 0.0 | 2.0 | 0.14 | 0.99 | 0.66 | 94 | 1006.8 |
| 20260506150010 | 39 | 150 | 0.0 | 2.0 | 0.14 | 0.98 | 0.65 | 94 | 1006.7 |
| 20260506145505 | 39 | 277 | 1.0 | 2.0 | 0.14 | 0.97 | 0.64 | 95 | 1006.8 |
| 20260506145002 | 39 | 186 | 0.0 | 3.0 | 0.14 | 0.96 | 0.63 | 94 | 1006.8 |
| 20260506144517 | 39 | 257 | 0.0 | 3.0 | 0.14 | 0.95 | 0.62 | 94 | 1006.8 |
| 20260506144013 | 39 | 201 | 1.0 | 3.0 | 0.14 | 0.94 | 0.61 | 95 | 1006.8 |
| 20260506143506 | 39 | 274 | 0.0 | 3.0 | 0.13 | 0.92 | 0.58 | 95 | 1006.8 |
| 20260506143017 | 39 | 294 | 2.0 | 4.0 | 0.13 | 0.91 | 0.58 | 94 | 1006.9 |
| 20260506142505 | 38 | 281 | 0.0 | 4.0 | 0.13 | 0.90 | 0.57 | 94 | 1007.0 |
| 20260506142006 | 38 | 257 | 0.0 | 4.0 | 0.13 | 0.89 | 0.56 | 94 | 1007.0 |
| 20260506141508 | 38 | 302 | 2.0 | 4.0 | 0.13 | 0.88 | 0.55 | 94 | 1007.0 |
| 20260506141003 | 38 | 219 | 1.0 | 4.0 | 0.14 | 0.87 | 0.54 | 94 | 1006.9 |
| 20260506140508 | 38 | 58 | 0.0 | 3.0 | 0.12 | 0.85 | 0.52 | 94 | 1007.0 |
| 20260506140030 | 38 | 206 | 0.0 | 3.0 | 0.12 | 0.84 | 0.51 | 94 | 1007.0 |
| 20260506135504 | 38 | 304 | 1.0 | 3.0 | 0.12 | 0.83 | 0.50 | 94 | 1006.8 |
| 20260506135007 | 38 | 259 | 1.0 | 3.0 | 0.12 | 0.82 | 0.49 | 94 | 1006.8 |
| 20260506134514 | 38 | 65 | 1.0 | 3.0 | 0.12 | 0.81 | 0.48 | 94 | 1006.9 |
| 20260506134006 | 38 | 212 | 0.0 | 4.0 | 0.12 | 0.80 | 0.47 | 94 | 1006.9 |
| 20260506133506 | 38 | 252 | 1.0 | 4.0 | 0.12 | 0.79 | 0.46 | 94 | 1006.9 |
| 20260506133031 | 38 | 312 | 2.0 | 4.0 | 0.12 | 0.78 | 0.45 | 94 | 1006.9 |
| 20260506132508 | 38 | 275 | 0.0 | 3.0 | 0.11 | 0.77 | 0.44 | 94 | 1006.9 |
| 20260506132007 | 38 | 319 | 0.0 | 3.0 | 0.11 | 0.76 | 0.43 | 94 | 1006.9 |
| 20260506131525 | 38 | 297 | 2.0 | 3.0 | 0.10 | 0.75 | 0.42 | 94 | 1006.8 |
| 20260506131009 | 38 | 265 | 0.0 | 3.0 | 0.09 | 0.73 | 0.40 | 93 | 1006.7 |
| 20260506130511 | 38 | 215 | 0.0 | 3.0 | 0.09 | 0.73 | 0.40 | 93 | 1006.9 |
| 20260506130018 | 38 | 80 | 0.0 | 6.0 | 0.09 | 0.72 | 0.39 | 93 | 1006.8 |
| 20260506125507 | 37 | 263 | 1.0 | 6.0 | 0.08 | 0.71 | 0.38 | 94 | 1006.8 |
| 20260506125009 | 37 | 184 | 1.0 | 9.0 | 0.08 | 0.70 | 0.37 | 93 | 1006.5 |
| 20260506124511 | 37 | 130 | 3.0 | 9.0 | 0.08 | 0.69 | 0.36 | 93 | 1006.6 |
| 20260506124006 | 37 | 128 | 4.0 | 7.0 | 0.07 | 0.68 | 0.35 | 92 | 1006.8 |
| 20260506123507 | 37 | 139 | 0.0 | 4.0 | 0.07 | 0.67 | 0.34 | 92 | 1006.9 |
| 20260506123028 | 37 | 130 | 1.0 | 3.0 | 0.07 | 0.66 | 0.33 | 92 | 1007.1 |
| 20260506122506 | 37 | 169 | 1.0 | 3.0 | 0.08 | 0.66 | 0.33 | 92 | 1007.1 |
| 20260506122010 | 37 | 107 | 0.0 | 3.0 | 0.07 | 0.65 | 0.32 | 93 | 1007.1 |
| 20260506121519 | 37 | 227 | 1.0 | 6.0 | 0.08 | 0.65 | 0.32 | 92 | 1007.0 |
| 20260506121010 | 37 | 140 | 1.0 | 8.0 | 0.09 | 0.64 | 0.31 | 92 | 1006.8 |
| 20260506120507 | 37 | 146 | 2.0 | 8.0 | 0.10 | 0.65 | 0.31 | 92 | 1006.8 |
| 20260506120035 | 37 | 171 | 2.0 | 9.0 | 0.10 | 0.64 | 0.30 | 93 | 1006.9 |
| 20260506115507 | 37 | 158 | 2.0 | 9.0 | 0.11 | 0.64 | 0.30 | 92 | 1007.2 |
| 20260506115006 | 37 | 148 | 1.0 | 9.0 | 0.11 | 0.63 | 0.29 | 92 | 1007.3 |
| 20260506114526 | 37 | 123 | 2.0 | 4.0 | 0.11 | 0.62 | 0.28 | 92 | 1007.7 |
| 20260506114006 | 37 | 236 | 1.0 | 4.0 | 0.11 | 0.62 | 0.28 | 92 | 1007.9 |
| 20260506113511 | 38 | 141 | 1.0 | 4.0 | 0.10 | 0.61 | 0.27 | 92 | 1008.0 |
| 20260506113018 | 38 | 217 | 0.0 | 3.0 | 0.09 | 0.60 | 0.26 | 92 | 1008.0 |
| 20260506112507 | 38 | 268 | 1.0 | 6.0 | 0.09 | 0.58 | 0.25 | 92 | 1008.1 |
| 20260506112006 | 38 | 321 | 1.0 | 6.0 | 0.10 | 0.58 | 0.25 | 93 | 1008.3 |
| 20260506111515 | 38 | 232 | 1.0 | 2.0 | 0.10 | 0.58 | 0.24 | 93 | 1008.1 |
| 20260506111006 | 38 | 98 | 0.0 | 4.0 | 0.09 | 0.56 | 0.22 | 93 | 1008.2 |
| 20260506110509 | 38 | 273 | 2.0 | 4.0 | 0.08 | 0.55 | 0.21 | 93 | 1008.1 |
| 20260506110022 | 38 | 286 | 0.0 | 2.0 | 0.07 | 0.54 | 0.20 | 92 | 1008.1 |
| 20260506105507 | 38 | 259 | 0.0 | 2.0 | 0.06 | 0.52 | 0.19 | 92 | 1008.0 |
| 20260506105007 | 38 | 217 | 0.0 | 2.0 | 0.06 | 0.52 | 0.18 | 92 | 1007.7 |
| 20260506104527 | 38 | 78 | 0.0 | 3.0 | 0.05 | 0.51 | 0.17 | 92 | 1007.6 |
| 20260506104008 | 38 | 212 | 1.0 | 3.0 | 0.06 | 0.51 | 0.17 | 92 | 1007.6 |
| 20260506103508 | 38 | 117 | 1.0 | 3.0 | 0.06 | 0.51 | 0.17 | 92 | 1007.5 |
| 20260506103032 | 38 | 184 | 0.0 | 2.0 | 0.06 | 0.51 | 0.17 | 93 | 1007.6 |
| 20260506102508 | 38 | 148 | 0.0 | 3.0 | 0.06 | 0.50 | 0.16 | 92 | 1007.8 |
| 20260506102006 | 38 | 42 | 1.0 | 3.0 | 0.05 | 0.49 | 0.15 | 92 | 1007.8 |
| 20260506101533 | 38 | 119 | 1.0 | 3.0 | 0.05 | 0.48 | 0.14 | 92 | 1007.6 |
| 20260506101014 | 39 | 224 | 0.0 | 3.0 | 0.04 | 0.47 | 0.13 | 92 | 1007.3 |
| 20260506100506 | 39 | 73 | 1.0 | 3.0 | 0.05 | 0.47 | 0.13 | 93 | 1007.7 |
| 20260506100029 | 39 | 317 | 1.0 | 6.0 | 0.06 | 0.47 | 0.13 | 92 | 1007.7 |
| 20260506095506 | 39 | 249 | 1.0 | 6.0 | 0.07 | 0.47 | 0.13 | 91 | 1007.6 |
| 20260506095009 | 39 | 234 | 1.0 | 3.0 | 0.06 | 0.47 | 0.12 | 92 | 1007.7 |
| 20260506094519 | 39 | 185 | 0.0 | 3.0 | 0.06 | 0.47 | 0.12 | 92 | 1007.8 |
| 20260506094004 | 39 | 260 | 1.0 | 3.0 | 0.05 | 0.46 | 0.11 | 92 | 1007.9 |
| 20260506093504 | 39 | 146 | 0.0 | 3.0 | 0.05 | 0.46 | 0.11 | 92 | 1008.0 |
| 20260506093009 | 39 | 293 | 1.0 | 3.0 | 0.05 | 0.46 | 0.11 | 92 | 1008.0 |
| 20260506092507 | 39 | 115 | 1.0 | 2.0 | 0.04 | 0.45 | 0.10 | 91 | 1007.8 |
| 20260506092003 | 39 | 232 | 0.0 | 3.0 | 0.04 | 0.45 | 0.10 | 92 | 1008.0 |
| 20260506091510 | 39 | 257 | 0.0 | 3.0 | 0.03 | 0.44 | 0.09 | 91 | 1008.1 |
| 20260506091004 | 39 | 281 | 1.0 | 5.0 | 0.03 | 0.44 | 0.09 | 91 | 1008.2 |
| 20260506090502 | 40 | 296 | 0.0 | 5.0 | 0.02 | 0.43 | 0.08 | 90 | 1008.3 |
| 20260506090006 | 40 | 277 | 1.0 | 3.0 | 0.01 | 0.42 | 0.07 | 90 | 1008.0 |
| 20260506085503 | 40 | 81 | 1.0 | 3.0 | 0.00 | 0.41 | 0.06 | 91 | 1007.8 |
| 20260506085010 | 40 | 117 | 0.0 | 2.0 | 0.00 | 0.41 | 0.06 | 91 | 1008.0 |
| 20260506084503 | 40 | 258 | 1.0 | 2.0 | 0.00 | 0.41 | 0.06 | 91 | 1008.2 |
| 20260506084003 | 40 | 248 | 0.0 | 2.0 | 0.00 | 0.41 | 0.06 | 92 | 1008.0 |
| 20260506083504 | 40 | 132 | 1.0 | 8.0 | 0.00 | 0.41 | 0.06 | 92 | 1008.0 |
| 20260506083003 | 41 | 172 | 1.0 | 8.0 | 0.01 | 0.41 | 0.06 | 93 | 1008.5 |
| 20260506082505 | 41 | 259 | 3.0 | 6.0 | 0.01 | 0.41 | 0.06 | 93 | 1008.8 |
| 20260506082003 | 41 | 330 | 2.0 | 4.0 | 0.01 | 0.41 | 0.06 | 94 | 1008.3 |
| 20260506081509 | 41 | 336 | 2.0 | 4.0 | 0.01 | 0.41 | 0.06 | 94 | 1008.3 |
| 20260506081003 | 41 | 287 | 0.0 | 3.0 | 0.01 | 0.41 | 0.06 | 94 | 1008.3 |
| 20260506080504 | 41 | 279 | 1.0 | 3.0 | 0.01 | 0.41 | 0.06 | 94 | 1008.5 |
| 20260506073503 | 41 | 82 | 0.0 | 2.0 | 0.01 | 0.46 | 0.06 | 94 | 1008.4 |
| 20260506073008 | 41 | 148 | 1.0 | 3.0 | 0.00 | 0.45 | 0.05 | 94 | 1008.5 |
| 20260506072504 | 41 | 86 | 0.0 | 3.0 | 0.00 | 0.45 | 0.05 | 94 | 1008.1 |
| 20260506072005 | 41 | 82 | 0.0 | 2.0 | 0.00 | 0.45 | 0.05 | 94 | 1008.6 |
| 20260506071507 | 41 | 316 | 0.0 | 2.0 | 0.00 | 0.45 | 0.05 | 94 | 1008.7 |
| 20260506071003 | 41 | 98 | 0.0 | 2.0 | 0.00 | 0.45 | 0.05 | 94 | 1008.3 |
| 20260506070504 | 41 | 107 | 0.0 | 2.0 | 0.00 | 0.45 | 0.05 | 94 | 1008.4 |
| 20260506062509 | 41 | 290 | 1.0 | 9.0 | 0.00 | 0.45 | 0.05 | 93 | 1008.8 |
| 20260506062005 | 42 | 289 | 5.0 | 9.0 | 0.01 | 0.45 | 0.05 | 94 | 1008.9 |
| 20260506061518 | 42 | 324 | 2.0 | 10.0 | 0.01 | 0.45 | 0.05 | 94 | 1008.7 |
| 20260506061004 | 42 | 323 | 2.0 | 10.0 | 0.01 | 0.45 | 0.05 | 94 | 1009.1 |
| 20260506060504 | 42 | 321 | 2.0 | 9.0 | 0.01 | 0.45 | 0.05 | 94 | 1009.1 |
| 20260506051004 | 43 | 271 | 0.0 | 4.0 | 0.04 | 0.44 | 0.04 | 94 | 1008.9 |
| 20260506050504 | 43 | 285 | 2.0 | 4.0 | 0.04 | 0.44 | 0.04 | 94 | 1009.1 |
| 20260506045005 | 44 | 300 | 0.0 | 4.0 | 0.03 | 0.42 | 0.02 | 94 | 1009.3 |
| 20260506044515 | 44 | 290 | 1.0 | 4.0 | 0.04 | 0.42 | 0.02 | 94 | 1009.7 |
| 20260506044005 | 44 | 271 | 1.0 | 3.0 | 0.04 | 0.42 | 0.02 | 94 | 1009.5 |
| 20260506043506 | 44 | 284 | 0.0 | 4.0 | 0.03 | 0.41 | 0.01 | 94 | 1009.4 |
| 20260506043014 | 44 | 326 | 1.0 | 4.0 | 0.04 | 0.41 | 0.01 | 94 | 1009.6 |
| 20260506042505 | 44 | 284 | 1.0 | 3.0 | 0.05 | 0.41 | 0.01 | 94 | 1009.7 |
| 20260506042006 | 44 | 317 | 1.0 | 3.0 | 0.05 | 0.41 | 0.01 | 94 | 1009.7 |
| 20260506041510 | 44 | 336 | 0.0 | 3.0 | 0.06 | 0.41 | 0.01 | 94 | 1009.7 |
| 20260506041005 | 44 | 281 | 1.0 | 3.0 | 0.05 | 0.40 | 0.00 | 94 | 1009.6 |
| 20260506040506 | 44 | 244 | 1.0 | 4.0 | 0.05 | 0.40 | 0.00 | 94 | 1009.2 |
| 20260506040018 | 44 | 264 | 0.0 | 6.0 | 0.06 | 0.40 | 0.00 | 94 | 1009.5 |
| 20260506035503 | 44 | 229 | 2.0 | 6.0 | 0.05 | 0.39 | 0.39 | 94 | 1010.1 |
| 20260506035007 | 44 | 279 | 0.0 | 3.0 | 0.05 | 0.39 | 0.39 | 94 | 1009.7 |
| 20260506034528 | 44 | 261 | 1.0 | 4.0 | 0.04 | 0.38 | 0.38 | 93 | 1009.7 |
| 20260506034003 | 44 | 317 | 1.0 | 4.0 | 0.04 | 0.38 | 0.38 | 93 | 1009.4 |
| 20260506033504 | 44 | 333 | 0.0 | 3.0 | 0.05 | 0.38 | 0.38 | 93 | 1009.1 |
| 20260506033014 | 44 | 281 | 0.0 | 6.0 | 0.06 | 0.37 | 0.37 | 93 | 1009.4 |
| 20260506032506 | 44 | 319 | 2.0 | 6.0 | 0.06 | 0.36 | 0.36 | 93 | 1009.9 |
| 20260506032006 | 45 | 315 | 3.0 | 6.0 | 0.06 | 0.36 | 0.36 | 93 | 1009.7 |
| 20260506031520 | 45 | 292 | 2.0 | 6.0 | 0.05 | 0.35 | 0.35 | 93 | 1009.1 |
| 20260506031007 | 45 | 304 | 3.0 | 6.0 | 0.05 | 0.35 | 0.35 | 93 | 1009.5 |
| 20260506030503 | 45 | 283 | 1.0 | 3.0 | 0.05 | 0.35 | 0.35 | 92 | 1009.0 |
| 20260506030017 | 45 | 317 | 0.0 | 7.0 | 0.05 | 0.34 | 0.34 | 93 | 1008.9 |
| 20260506025507 | 45 | 298 | 2.0 | 8.0 | 0.05 | 0.34 | 0.34 | 92 | 1009.0 |
| 20260506025010 | 46 | 306 | 3.0 | 8.0 | 0.05 | 0.34 | 0.34 | 93 | 1009.1 |
| 20260506024515 | 46 | 280 | 0.0 | 4.0 | 0.06 | 0.34 | 0.34 | 92 | 1009.2 |
| 20260506024010 | 46 | 302 | 1.0 | 5.0 | 0.06 | 0.34 | 0.34 | 92 | 1009.2 |
| 20260506023514 | 46 | 306 | 0.0 | 5.0 | 0.05 | 0.33 | 0.33 | 92 | 1009.2 |
| 20260506023013 | 46 | 309 | 2.0 | 5.0 | 0.03 | 0.31 | 0.31 | 92 | 1009.5 |
| 20260506022504 | 47 | 259 | 1.0 | 8.0 | 0.02 | 0.30 | 0.30 | 92 | 1009.4 |
| 20260506022016 | 47 | 281 | 3.0 | 8.0 | 0.03 | 0.30 | 0.30 | 92 | 1009.5 |
| 20260506021528 | 47 | 329 | 2.0 | 6.0 | 0.03 | 0.30 | 0.30 | 92 | 1009.5 |
| 20260506021004 | 47 | 261 | 1.0 | 4.0 | 0.03 | 0.30 | 0.30 | 92 | 1009.5 |
| 20260506020504 | 47 | 283 | 1.0 | 6.0 | 0.05 | 0.30 | 0.30 | 92 | 1009.5 |
| 20260506020020 | 47 | 236 | 0.0 | 6.0 | 0.04 | 0.29 | 0.29 | 92 | 1009.5 |
| 20260506015506 | 47 | 266 | 1.0 | 6.0 | 0.06 | 0.29 | 0.29 | 92 | 1009.4 |
| 20260506015010 | 47 | 281 | 1.0 | 4.0 | 0.06 | 0.29 | 0.29 | 92 | 1009.4 |
| 20260506014526 | 47 | 315 | 1.0 | 4.0 | 0.05 | 0.28 | 0.28 | 91 | 1009.6 |
| 20260506014007 | 47 | 279 | 1.0 | 3.0 | 0.05 | 0.28 | 0.28 | 91 | 1009.3 |
| 20260506013503 | 47 | 292 | 0.0 | 4.0 | 0.05 | 0.28 | 0.28 | 91 | 1009.2 |
| 20260506013022 | 48 | 295 | 0.0 | 6.0 | 0.05 | 0.28 | 0.28 | 91 | 1009.2 |
| 20260506012507 | 48 | 277 | 1.0 | 6.0 | 0.05 | 0.28 | 0.28 | 90 | 1009.2 |
| 20260506012012 | 48 | 289 | 2.0 | 7.0 | 0.04 | 0.27 | 0.27 | 90 | 1008.9 |
| 20260506011516 | 48 | 302 | 2.0 | 7.0 | 0.04 | 0.27 | 0.27 | 89 | 1009.0 |
| 20260506011006 | 49 | 289 | 1.0 | 7.0 | 0.04 | 0.27 | 0.27 | 87 | 1009.1 |
| 20260506010506 | 49 | 278 | 2.0 | 7.0 | 0.02 | 0.25 | 0.25 | 86 | 1009.2 |
| 20260506010030 | 50 | 325 | 2.0 | 9.0 | 0.02 | 0.25 | 0.25 | 84 | 1008.9 |
| 20260506005508 | 50 | 297 | 2.0 | 11.0 | 0.00 | 0.23 | 0.23 | 83 | 1008.8 |
| 20260506005006 | 51 | 285 | 5.0 | 15.0 | 0.00 | 0.23 | 0.23 | 80 | 1008.7 |
| 20260506004510 | 51 | 297 | 4.0 | 15.0 | 0.00 | 0.23 | 0.23 | 79 | 1008.6 |
| 20260506004007 | 52 | 301 | 6.0 | 13.0 | 0.00 | 0.23 | 0.23 | 79 | 1008.6 |
| 20260506003512 | 52 | 278 | 4.0 | 13.0 | 0.00 | 0.23 | 0.23 | 77 | 1008.5 |
| 20260506003004 | 53 | 324 | 4.0 | 12.0 | 0.00 | 0.23 | 0.23 | 78 | 1008.4 |
| 20260506002503 | 53 | 269 | 4.0 | 12.0 | 0.00 | 0.23 | 0.23 | 77 | 1008.0 |
| 20260506002004 | 53 | 311 | 3.0 | 10.0 | 0.00 | 0.23 | 0.23 | 78 | 1007.9 |
| 20260506001510 | 53 | 311 | 2.0 | 13.0 | 0.00 | 0.23 | 0.23 | 78 | 1008.1 |
| 20260506001005 | 53 | 322 | 3.0 | 13.0 | 0.00 | 0.23 | 0.23 | 78 | 1008.0 |
| 20260506000504 | 54 | 302 | 4.0 | 16.0 | 0.00 | 0.23 | 0.23 | 79 | 1007.8 |
| 20260506000018 | 54 | 296 | 6.0 | 16.0 | 0.00 | 0.23 | 0.23 | 79 | 1007.7 |
| 20260505235503 | 54 | 270 | 6.0 | 12.0 | 0.00 | 0.23 | 0.23 | 80 | 1007.6 |
| 20260505235007 | 54 | 291 | 6.0 | 10.0 | 0.00 | 0.23 | 0.23 | 80 | 1007.5 |
| 20260505234533 | 54 | 300 | 5.0 | 10.0 | 0.00 | 0.23 | 0.23 | 81 | 1007.4 |
| 20260505234007 | 55 | 282 | 4.0 | 10.0 | 0.00 | 0.23 | 0.23 | 82 | 1007.3 |
| 20260505233504 | 55 | 295 | 5.0 | 10.0 | 0.00 | 0.23 | 0.23 | 81 | 1007.1 |
| 20260505233018 | 55 | 323 | 2.0 | 12.0 | 0.00 | 0.23 | 0.23 | 82 | 1007.0 |
| 20260505232508 | 55 | 306 | 5.0 | 12.0 | 0.00 | 0.23 | 0.23 | 81 | 1006.9 |
| 20260505232003 | 56 | 306 | 2.0 | 9.0 | 0.00 | 0.23 | 0.23 | 80 | 1006.8 |
| 20260505231508 | 56 | 303 | 2.0 | 12.0 | 0.00 | 0.23 | 0.23 | 79 | 1006.6 |
| 20260505231003 | 56 | 225 | 7.0 | 12.0 | 0.00 | 0.23 | 0.23 | 79 | 1006.9 |
| 20260505230511 | 57 | 325 | 2.0 | 11.0 | 0.00 | 0.23 | 0.23 | 79 | 1006.9 |
| 20260505230010 | 57 | 344 | 4.0 | 11.0 | 0.00 | 0.23 | 0.23 | 78 | 1006.9 |
| 20260505225508 | 57 | 286 | 4.0 | 10.0 | 0.00 | 0.23 | 0.23 | 78 | 1006.8 |
| 20260505225006 | 57 | 348 | 3.0 | 11.0 | 0.00 | 0.23 | 0.23 | 78 | 1006.9 |
| 20260505224533 | 58 | 241 | 5.0 | 11.0 | 0.00 | 0.23 | 0.23 | 77 | 1006.7 |
| 20260505224004 | 58 | 330 | 3.0 | 15.0 | 0.00 | 0.23 | 0.23 | 77 | 1006.6 |
| 20260505223516 | 58 | 309 | 7.0 | 15.0 | 0.00 | 0.23 | 0.23 | 77 | 1006.5 |
| 20260505223022 | 58 | 296 | 3.0 | 11.0 | 0.00 | 0.23 | 0.23 | 76 | 1006.2 |
| 20260505222507 | 58 | 310 | 5.0 | 11.0 | 0.00 | 0.23 | 0.23 | 76 | 1006.1 |
| 20260505222011 | 58 | 270 | 2.0 | 11.0 | 0.00 | 0.23 | 0.23 | 77 | 1006.0 |
| 20260505221523 | 58 | 315 | 4.0 | 11.0 | 0.00 | 0.23 | 0.23 | 77 | 1006.1 |
| 20260505221013 | 58 | 297 | 3.0 | 10.0 | 0.00 | 0.23 | 0.23 | 77 | 1006.1 |
| 20260505220504 | 59 | 310 | 3.0 | 11.0 | 0.00 | 0.23 | 0.23 | 78 | 1006.1 |
| 20260505220009 | 59 | 174 | 4.0 | 11.0 | 0.00 | 0.23 | 0.23 | 78 | 1006.0 |
| 20260505215504 | 59 | 278 | 3.0 | 13.0 | 0.00 | 0.23 | 0.23 | 77 | 1006.1 |
| 20260505215005 | 59 | 352 | 7.0 | 14.0 | 0.00 | 0.23 | 0.23 | 77 | 1006.1 |
| 20260505214520 | 59 | 292 | 6.0 | 14.0 | 0.00 | 0.23 | 0.23 | 79 | 1006.0 |
| 20260505214005 | 59 | 277 | 3.0 | 7.0 | 0.00 | 0.23 | 0.23 | 80 | 1006.0 |
| 20260505213505 | 59 | 250 | 3.0 | 8.0 | 0.00 | 0.23 | 0.23 | 81 | 1005.8 |
| 20260505213013 | 59 | 202 | 4.0 | 13.0 | 0.00 | 0.23 | 0.23 | 80 | 1005.7 |
| 20260505212508 | 59 | 271 | 3.0 | 13.0 | 0.00 | 0.23 | 0.23 | 81 | 1005.7 |
| 20260505212009 | 58 | 262 | 2.0 | 10.0 | 0.00 | 0.23 | 0.23 | 82 | 1005.6 |
| 20260505211526 | 58 | 247 | 2.0 | 10.0 | 0.00 | 0.23 | 0.23 | 82 | 1005.6 |
| 20260505211004 | 58 | 352 | 2.0 | 9.0 | 0.00 | 0.23 | 0.23 | 82 | 1005.5 |
| 20260505210508 | 58 | 278 | 5.0 | 15.0 | 0.00 | 0.23 | 0.23 | 82 | 1005.7 |
| 20260505210028 | 58 | 300 | 5.0 | 15.0 | 0.00 | 0.23 | 0.23 | 82 | 1005.7 |
| 20260505205503 | 58 | 259 | 4.0 | 11.0 | 0.00 | 0.23 | 0.23 | 82 | 1005.7 |
| 20260505205003 | 58 | 244 | 5.0 | 11.0 | 0.00 | 0.23 | 0.23 | 83 | 1005.6 |
| 20260505204513 | 58 | 287 | 4.0 | 17.0 | 0.00 | 0.23 | 0.23 | 84 | 1005.9 |
| 20260505204007 | 58 | 270 | 8.0 | 14.0 | 0.00 | 0.23 | 0.23 | 84 | 1005.8 |
| 20260505203504 | 58 | 262 | 4.0 | 12.0 | 0.00 | 0.23 | 0.23 | 84 | 1005.8 |
| 20260505203031 | 57 | 343 | 5.0 | 12.0 | 0.01 | 0.23 | 0.23 | 85 | 1005.8 |
| 20260505202506 | 58 | 257 | 5.0 | 12.0 | 0.01 | 0.23 | 0.23 | 86 | 1005.8 |
| 20260505202007 | 57 | 350 | 5.0 | 13.0 | 0.02 | 0.23 | 0.23 | 87 | 1005.6 |
| 20260505201525 | 57 | 263 | 4.0 | 13.0 | 0.02 | 0.23 | 0.23 | 88 | 1005.7 |
| 20260505201006 | 57 | 257 | 2.0 | 9.0 | 0.02 | 0.23 | 0.23 | 88 | 1005.6 |
| 20260505200511 | 56 | 269 | 4.0 | 15.0 | 0.02 | 0.23 | 0.23 | 88 | 1005.7 |
| 20260505200018 | 56 | 277 | 5.0 | 15.0 | 0.03 | 0.23 | 0.23 | 89 | 1005.8 |
| 20260505195513 | 56 | 220 | 5.0 | 10.0 | 0.04 | 0.23 | 0.23 | 90 | 1005.9 |
| 20260505195012 | 55 | 319 | 3.0 | 11.0 | 0.05 | 0.23 | 0.23 | 1005.8 | |
| 20260505194515 | 55 | 342 | 5.0 | 11.0 | 0.09 | 0.23 | 0.23 | 1006.0 | |
| 20260505194007 | 54 | 279 | 4.0 | 11.0 | 0.15 | 0.23 | 0.23 | 1005.9 | |
| 20260505193509 | 54 | 306 | 3.0 | 11.0 | 0.16 | 0.23 | 0.23 | 91 | 1005.9 |
| 20260505193016 | 54 | 327 | 3.0 | 10.0 | 0.15 | 0.22 | 0.22 | 91 | 1006.0 |